Time;durP1;ratioP1;P1;durP2;ratioP2;P2;SDS_P1;SDS_P2;PMS_P1;PMS_P2;Temp;Humidity;BMP_temperature;BMP_pressure;BME280_temperature;BME280_humidity;BME280_pressure;Samples;Min_cycle;Max_cycle;Signal;HPM_P1;HPM_P2
2022/04/20 00:00:59;;;;;;;;;;;2.60;99.90;;;;;;5095025;28;20127;-84
2022/04/20 00:03:25;;;;;;;8.45;5.38;;;2.50;99.90;;;;;;5095016;28;19954;-84
2022/04/20 00:05:51;;;;;;;;;;;2.50;99.90;;;;;;5095529;28;20031;-84
2022/04/20 00:08:16;;;;;;;8.40;4.97;;;2.50;99.90;;;;;;5095146;28;19904;-83
2022/04/20 00:10:42;;;;;;;;;;;2.50;99.90;;;;;;5095234;28;20024;-84
2022/04/20 00:13:07;;;;;;;9.30;4.88;;;2.50;99.90;;;;;;5094463;28;19919;-83
2022/04/20 00:15:33;;;;;;;;;;;2.50;99.90;;;;;;5095398;28;20161;-83
2022/04/20 00:17:59;;;;;;;8.05;5.05;;;2.50;99.90;;;;;;5094462;28;20295;-82
2022/04/20 00:20:24;;;;;;;;;;;2.50;99.90;;;;;;5094483;28;20024;-82
2022/04/20 00:22:50;;;;;;;7.32;3.85;;;2.40;99.90;;;;;;5093782;28;20360;-83
2022/04/20 00:25:15;;;;;;;7.90;4.18;;;2.40;99.90;;;;;;5093103;28;20024;-83
2022/04/20 00:27:41;;;;;;;5.43;3.83;;;2.40;99.90;;;;;;5091299;28;20042;-83
2022/04/20 00:30:08;;;;;;;;;;;2.50;99.90;;;;;;5092846;28;20024;-81
2022/04/20 00:32:34;;;;;;;12.38;4.57;;;2.50;99.90;;;;;;5092756;28;19912;-80
2022/04/20 00:34:59;;;;;;;;;;;2.60;99.90;;;;;;5093490;28;20687;-82
2022/04/20 00:37:25;;;;;;;9.02;4.18;;;2.60;99.90;;;;;;5092751;28;19969;-82
2022/04/20 00:39:51;;;;;;;9.90;4.88;;;2.60;99.90;;;;;;5092558;28;20031;-82
2022/04/20 00:42:19;;;;;;;8.73;4.88;;;2.60;99.90;;;;;;5093380;28;20066;-82
2022/04/20 00:44:45;;;;;;;7.40;3.80;;;2.70;99.90;;;;;;5094754;28;20016;-83
2022/04/20 00:47:11;;;;;;;;;;;2.80;99.90;;;;;;5093734;28;20051;-83
2022/04/20 00:49:37;;;;;;;5.40;3.35;;;2.80;99.90;;;;;;5093645;28;19908;-83
2022/04/20 00:52:04;;;;;;;9.60;4.20;;;2.80;99.90;;;;;;5093127;28;20139;-83
2022/04/20 00:54:30;;;;;;;7.50;3.58;;;2.80;99.90;;;;;;5093421;28;20492;-82
2022/04/20 00:56:56;;;;;;;;;;;2.70;99.90;;;;;;5092681;28;20085;-83
2022/04/20 00:59:27;;;;;;;5.65;3.28;;;2.70;99.90;;;;;;5093047;28;19934;-83
2022/04/20 01:01:52;;;;;;;8.05;3.83;;;2.60;99.90;;;;;;5092792;28;20016;-82
2022/04/20 01:04:18;;;;;;;;;;;2.50;99.90;;;;;;5093636;28;20089;-83
2022/04/20 01:06:45;;;;;;;4.75;3.33;;;2.40;99.90;;;;;;5094340;28;19944;-81
2022/04/20 01:09:11;;;;;;;5.40;3.50;;;2.40;99.90;;;;;;5094456;28;20024;-83
2022/04/20 01:11:37;;;;;;;;;;;2.30;99.90;;;;;;5094686;28;20085;-83
2022/04/20 01:14:03;;;;;;;4.95;3.00;;;2.30;99.90;;;;;;5092378;28;19923;-83
2022/04/20 01:16:29;;;;;;;4.78;3.33;;;2.20;99.90;;;;;;5092892;28;20030;-83
2022/04/20 01:18:55;;;;;;;;;;;2.10;99.90;;;;;;5092792;28;20036;-82
2022/04/20 01:21:22;;;;;;;5.50;3.28;;;2.10;99.90;;;;;;5092631;28;19904;-81
2022/04/20 01:23:47;;;;;;;7.72;3.50;;;2.00;99.90;;;;;;5091943;28;20035;-81
2022/04/20 01:26:13;;;;;;;;;;;2.00;99.90;;;;;;5093855;28;20024;-82
2022/04/20 01:28:43;;;;;;;7.03;3.40;;;1.90;99.90;;;;;;5092959;28;19915;-82
2022/04/20 01:31:11;;;;;;;4.38;2.97;;;1.90;99.90;;;;;;5093651;28;20028;-82
2022/04/20 01:33:37;;;;;;;6.90;3.70;;;1.90;99.90;;;;;;5092385;28;20128;-81
2022/04/20 01:36:03;;;;;;;;;;;1.90;99.90;;;;;;5093931;28;20476;-82
2022/04/20 01:38:29;;;;;;;8.88;3.72;;;1.90;99.90;;;;;;5092374;28;19910;-81
2022/04/20 01:40:54;;;;;;;7.35;2.92;;;1.80;99.90;;;;;;5092130;28;20481;-82
2022/04/20 01:43:20;;;;;;;6.78;3.78;;;1.80;99.90;;;;;;5092088;28;20369;-83
2022/04/20 01:45:46;;;;;;;;;;;1.80;99.90;;;;;;5092312;28;20024;-83
2022/04/20 01:48:11;;;;;;;5.57;3.35;;;1.70;99.90;;;;;;5091926;28;19904;-81
2022/04/20 01:51:46;;;;;;;;;;;1.70;99.90;;;;;;5108254;27;20055;-82
2022/04/20 01:53:23;;;;;;;5.47;3.17;;;1.60;99.90;;;;;;5133449;27;19955;-82
2022/04/20 01:55:48;;;;;;;;;;;1.60;99.90;;;;;;5115639;27;20038;-81
2022/04/20 01:58:14;;;;;;;7.75;3.45;;;1.60;99.90;;;;;;5132982;27;19903;-82
2022/04/20 02:00:39;;;;;;;;;;;1.60;99.90;;;;;;5113899;27;20055;-79
2022/04/20 02:03:05;;;;;;;10.10;4.35;;;1.50;99.90;;;;;;5113206;27;19910;-80
2022/04/20 02:05:31;;;;;;;;;;;1.50;99.90;;;;;;5133323;27;20025;-82
2022/04/20 02:07:57;;;;;;;6.80;3.97;;;1.50;99.90;;;;;;5134083;27;19904;-81
2022/04/20 02:10:22;;;;;;;;;;;1.50;99.90;;;;;;5115689;27;20036;-79
2022/04/20 02:12:48;;;;;;;8.65;4.65;;;1.40;99.90;;;;;;5131447;27;19916;-79
2022/04/20 02:15:13;;;;;;;;;;;1.40;99.90;;;;;;5133851;27;20023;-83
2022/04/20 02:17:39;;;;;;;7.38;4.15;;;1.30;99.90;;;;;;5114834;27;19964;-78
2022/04/20 02:20:05;;;;;;;;;;;1.30;99.90;;;;;;5114830;27;20020;-82
2022/04/20 02:22:30;;;;;;;6.15;3.75;;;1.30;99.90;;;;;;5132865;27;19908;-81
2022/04/20 02:24:56;;;;;;;;;;;1.30;99.90;;;;;;5132931;27;20027;-81
2022/04/20 02:27:22;;;;;;;6.03;3.35;;;1.50;99.90;;;;;;5112931;27;19907;-80
2022/04/20 02:29:47;;;;;;;4.68;2.63;;;1.60;99.90;;;;;;5112043;27;20027;-78
2022/04/20 02:32:13;;;;;;;;;;;1.80;99.90;;;;;;5131528;27;20043;-81
2022/04/20 02:34:39;;;;;;;4.15;2.72;;;2.00;99.90;;;;;;5131652;27;20354;-81
2022/04/20 02:37:05;;;;;;;;;;;2.10;99.90;;;;;;5132706;27;20563;-83
2022/04/20 02:39:31;;;;;;;10.82;2.97;;;2.20;99.90;;;;;;5132935;27;19908;-81
2022/04/20 02:41:58;;;;;;;3.45;2.42;;;2.30;99.90;;;;;;5114525;27;20027;-82
2022/04/20 02:44:23;;;;;;;5.70;2.80;;;2.50;99.90;;;;;;5131475;27;20118;-80
2022/04/20 02:46:49;;;;;;;;;;;2.50;99.90;;;;;;5112060;27;20563;-81
2022/04/20 02:49:16;;;;;;;5.30;2.55;;;2.60;99.90;;;;;;5112778;27;19913;-82
2022/04/20 02:51:41;;;;;;;4.10;2.67;;;2.60;99.90;;;;;;5131625;27;20039;-81
2022/04/20 02:54:07;;;;;;;;;;;2.60;99.90;;;;;;5112779;27;20027;-79
2022/04/20 02:56:32;;;;;;;8.23;3.03;;;2.50;99.90;;;;;;5112655;27;19913;-81
2022/04/20 02:58:58;;;;;;;;;;;2.40;99.90;;;;;;5113709;27;20365;-83
2022/04/20 03:01:24;;;;;;;5.40;2.65;;;2.30;99.90;;;;;;5112013;27;19911;-82
2022/04/20 03:03:49;;;;;;;;;;;2.20;99.90;;;;;;5112584;27;20034;-83
2022/04/20 03:06:15;;;;;;;12.88;3.78;;;2.10;99.90;;;;;;5113005;28;19994;-82
2022/04/20 03:08:41;;;;;;;;;;;2.00;99.90;;;;;;5114408;27;20122;-83
2022/04/20 03:11:08;;;;;;;7.28;4.03;;;1.90;99.90;;;;;;5112282;28;19979;-80
2022/04/20 03:13:33;;;;;;;9.18;4.20;;;1.90;99.90;;;;;;5112137;27;20027;-81
2022/04/20 03:15:59;;;;;;;;;;;1.80;99.90;;;;;;5115004;28;20092;-84
2022/04/20 03:18:25;;;;;;;7.97;4.50;;;1.80;99.90;;;;;;5115205;28;19910;-85
2022/04/20 03:20:51;;;;;;;;;;;1.70;99.90;;;;;;5115808;28;20068;-85
2022/04/20 03:23:16;;;;;;;9.13;4.85;;;1.80;99.90;;;;;;5114918;28;19903;-85
2022/04/20 03:25:42;;;;;;;;;;;1.70;99.90;;;;;;5115246;28;20050;-85
2022/04/20 03:28:08;;;;;;;7.05;4.60;;;1.60;99.90;;;;;;5132929;28;19930;-85
2022/04/20 03:30:36;;;;;;;;;;;1.60;99.90;;;;;;5115493;28;20022;-85
2022/04/20 03:33:01;;;;;;;6.45;3.88;;;1.50;99.90;;;;;;5114943;28;19918;-85
2022/04/20 03:35:27;;;;;;;;;;;1.50;99.90;;;;;;5115445;28;20027;-85
2022/04/20 03:37:52;;;;;;;5.22;3.80;;;1.40;99.90;;;;;;5133148;28;20076;-84
2022/04/20 03:40:18;;;;;;;;;;;1.40;99.90;;;;;;5115108;28;20106;-84
2022/04/20 03:42:44;;;;;;;6.13;3.83;;;1.30;99.90;;;;;;5114695;28;19903;-84
2022/04/20 03:45:09;;;;;;;;;;;1.30;99.90;;;;;;5114272;28;20027;-82
2022/04/20 03:47:35;;;;;;;5.13;3.65;;;1.30;99.90;;;;;;5113058;28;19911;-82
2022/04/20 03:50:01;;;;;;;;;;;1.20;99.90;;;;;;5113461;28;20038;-82
2022/04/20 03:52:26;;;;;;;6.63;3.58;;;1.20;99.90;;;;;;5131453;28;20382;-83
2022/04/20 03:54:52;;;;;;;;;;;1.30;99.90;;;;;;5113533;28;20394;-83
2022/04/20 03:57:17;;;;;;;7.90;5.00;;;1.30;99.90;;;;;;5113442;28;20375;-84
2022/04/20 03:59:43;;;;;;;;;;;1.30;99.90;;;;;;5113871;28;20463;-83
2022/04/20 04:02:08;;;;;;;8.77;6.68;;;1.40;99.90;;;;;;5114204;28;19914;-84
2022/04/20 04:04:35;;;;;;;12.75;7.32;;;1.40;99.90;;;;;;5114147;28;20015;-84
2022/04/20 04:07:01;;;;;;;14.40;9.63;;;1.50;99.90;;;;;;5132455;28;20027;-84
2022/04/20 04:09:26;;;;;;;;;;;1.60;99.90;;;;;;5114260;28;20053;-83
2022/04/20 04:11:52;;;;;;;14.27;8.82;;;1.70;99.90;;;;;;5112631;28;19918;-85
2022/04/20 04:14:18;;;;;;;;;;;1.80;99.90;;;;;;5131139;28;20028;-82
2022/04/20 04:16:44;;;;;;;12.77;6.75;;;1.80;99.90;;;;;;5111174;28;19907;-82
2022/04/20 04:19:10;;;;;;;;;;;1.90;99.90;;;;;;5112217;28;20031;-82
2022/04/20 04:21:37;;;;;;;12.07;6.43;;;1.90;99.90;;;;;;5131581;27;19907;-82
2022/04/20 04:24:04;;;;;;;10.43;6.00;;;2.00;99.90;;;;;;5115753;27;20031;-81
2022/04/20 04:26:30;;;;;;;11.93;6.13;;;2.10;99.90;;;;;;5115407;27;20110;-82
2022/04/20 04:28:56;;;;;;;;;;;2.20;99.90;;;;;;5115764;27;20625;-82
2022/04/20 04:31:22;;;;;;;13.02;8.63;;;2.30;99.90;;;;;;5115420;27;19956;-80
2022/04/20 04:33:47;;;;;;;;;;;2.40;99.90;;;;;;5115670;27;20107;-82
2022/04/20 04:36:13;;;;;;;11.07;6.47;;;2.60;99.90;;;;;;5133397;27;20060;-82
2022/04/20 04:38:38;;;;;;;;;;;3.00;99.90;;;;;;5134275;27;20144;-82
2022/04/20 04:41:04;;;;;;;11.70;6.15;;;3.30;99.90;;;;;;5114863;27;20365;-82
2022/04/20 04:43:29;;;;;;;;;;;3.70;99.90;;;;;;5115451;27;20027;-81
2022/04/20 04:48:40;;;;;;;14.48;5.28;;;4.70;99.90;;;;;;5133707;27;20593;-82
2022/04/20 04:51:07;;;;;;;7.82;4.95;;;5.10;99.90;;;;;;5099946;28;20044;-82
2022/04/20 04:53:32;;;;;;;8.65;4.50;;;5.60;99.90;;;;;;5091004;28;20036;-82
2022/04/20 04:55:58;;;;;;;5.78;3.58;;;6.00;99.90;;;;;;5090636;28;20028;-82
2022/04/20 04:58:24;;;;;;;4.93;2.95;;;6.30;99.90;;;;;;5091014;28;20039;-82
2022/04/20 05:00:50;;;;;;;;;;;6.50;99.90;;;;;;5092296;28;20024;-82
2022/04/20 05:03:16;;;;;;;5.22;2.92;;;6.80;99.10;;;;;;5091991;28;20521;-81
2022/04/20 05:05:46;;;;;;;5.50;2.58;;;7.30;98.10;;;;;;5090435;28;20032;-82
2022/04/20 05:08:12;;;;;;;8.73;3.67;;;7.60;95.30;;;;;;5092793;28;20024;-85
2022/04/20 05:10:37;;;;;;;4.78;3.25;;;8.00;93.90;;;;;;5092544;28;20031;-85
2022/04/20 05:13:03;;;;;;;;;;;8.40;91.60;;;;;;5093782;28;20382;-84
2022/04/20 05:15:29;;;;;;;11.80;4.20;;;9.00;83.50;;;;;;5091126;28;19939;-82
2022/04/20 05:17:55;;;;;;;;;;;9.40;79.10;;;;;;5090234;28;20089;-81
2022/04/20 05:20:21;;;;;;;5.75;3.53;;;9.50;75.60;;;;;;5089674;28;19908;-82
2022/04/20 05:22:46;;;;;;;;;;;9.70;75.20;;;;;;5090508;28;20039;-82
2022/04/20 05:25:12;;;;;;;5.13;4.03;;;10.10;73.20;;;;;;5090417;28;19908;-82
2022/04/20 05:27:38;;;;;;;;;;;10.20;72.90;;;;;;5090617;28;20027;-82
2022/04/20 05:30:05;;;;;;;10.27;4.65;;;10.50;70.60;;;;;;5090936;28;20291;-83
2022/04/20 05:32:31;;;;;;;10.55;5.20;;;10.90;69.90;;;;;;5090820;28;20090;-85
2022/04/20 05:34:57;;;;;;;7.18;4.75;;;11.50;67.70;;;;;;5089275;28;20496;-83
2022/04/20 05:42:52;;;;;;;15.38;7.00;;;12.60;62.20;;;;;;5091001;28;20515;-81
2022/04/20 05:45:18;;;;;;;15.80;8.02;;;12.80;59.00;;;;;;5090328;28;20028;-80
2022/04/20 05:47:43;;;;;;;11.75;6.55;;;13.30;58.30;;;;;;5090884;28;20120;-80
2022/04/20 05:50:09;;;;;;;11.80;6.00;;;13.80;55.70;;;;;;5090483;28;20036;-87
2022/04/20 05:52:35;;;;;;;14.65;5.30;;;14.20;53.60;;;;;;5093216;28;20496;-83
2022/04/20 05:55:01;;;;;;;9.68;3.53;;;14.60;52.20;;;;;;5090217;28;20017;-82
2022/04/20 05:57:27;;;;;;;5.82;2.47;;;14.80;50.70;;;;;;5093178;28;20032;-84
2022/04/20 05:59:52;;;;;;;4.47;2.50;;;15.20;49.10;;;;;;5091444;28;20498;-82
2022/04/20 06:02:18;;;;;;;2.95;1.95;;;15.60;47.80;;;;;;5090857;28;20481;-83
2022/04/20 06:04:44;;;;;;;3.35;2.17;;;15.80;45.60;;;;;;5090725;28;20551;-86
2022/04/20 06:07:10;;;;;;;4.93;2.92;;;16.20;44.90;;;;;;5089731;28;20035;-88
2022/04/20 06:09:35;;;;;;;8.23;4.72;;;16.50;43.40;;;;;;5092783;28;20098;-86
2022/04/20 06:12:01;;;;;;;7.68;6.03;;;17.00;42.90;;;;;;5090257;28;20078;-84
2022/04/20 06:14:27;;;;;;;5.32;4.13;;;17.30;42.60;;;;;;5090718;28;20094;-86
2022/04/20 06:16:52;;;;;;;10.48;2.63;;;17.90;40.60;;;;;;5090082;28;20111;-84
2022/04/20 06:19:18;;;;;;;4.53;3.22;;;17.50;38.90;;;;;;5090158;28;20028;-83
2022/04/20 06:21:44;;;;;;;4.47;2.78;;;17.80;38.70;;;;;;5092041;28;20030;-85
2022/04/20 06:24:14;;;;;;;5.03;2.42;;;18.30;36.90;;;;;;5091415;28;20060;-87
2022/04/20 06:26:40;;;;;;;4.28;2.30;;;18.50;37.60;;;;;;5092969;28;20027;-86
2022/04/20 06:29:05;;;;;;;2.88;1.83;;;18.90;36.90;;;;;;5092368;28;20080;-85
2022/04/20 06:31:31;;;;;;;4.05;2.50;;;19.30;36.00;;;;;;5090668;28;20454;-83
2022/04/20 06:33:59;;;;;;;3.50;2.00;;;19.90;34.60;;;;;;5090762;28;20061;-83
2022/04/20 06:36:25;;;;;;;5.50;2.60;;;20.10;34.80;;;;;;5091918;28;20032;-85
2022/04/20 06:38:52;;;;;;;4.15;2.70;;;20.30;32.80;;;;;;5089749;28;20024;-86
2022/04/20 06:41:18;;;;;;;5.20;3.00;;;20.50;32.20;;;;;;5090834;28;20035;-85
2022/04/20 06:43:44;;;;;;;5.10;3.28;;;20.20;31.50;;;;;;5091647;28;20032;-84
2022/04/20 06:46:10;;;;;;;9.82;3.08;;;20.40;32.00;;;;;;5089964;28;20081;-84
2022/04/20 06:48:35;;;;;;;2.65;1.63;;;20.80;31.50;;;;;;5090442;28;20501;-85
2022/04/20 06:51:02;;;;;;;2.60;1.30;;;20.90;30.10;;;;;;5091254;28;20131;-86
2022/04/20 06:58:31;;;;;;;2.83;1.58;;;20.90;29.90;;;;;;5091036;28;20169;-82
2022/04/20 06:59:13;;;;;;;2.78;1.73;;;21.10;29.20;;;;;;5091784;28;20024;-84
2022/04/20 07:01:38;;;;;;;3.28;1.48;;;21.50;29.10;;;;;;5090289;28;20081;-83
2022/04/20 07:04:05;;;;;;;2.75;1.50;;;21.50;29.00;;;;;;5090583;28;20024;-85
2022/04/20 07:06:31;;;;;;;3.08;1.55;;;21.40;28.70;;;;;;5090435;28;20441;-85
2022/04/20 07:08:57;;;;;;;3.42;1.67;;;21.40;28.70;;;;;;5090882;28;20077;-87
2022/04/20 07:11:23;;;;;;;3.60;1.77;;;21.80;29.20;;;;;;5091859;28;20070;-90
2022/04/20 07:13:50;;;;;;;5.68;2.90;;;22.20;28.40;;;;;;5091495;28;20035;-87
2022/04/20 07:16:15;;;;;;;5.50;1.88;;;22.40;28.00;;;;;;5092099;28;20027;-87
2022/04/20 07:18:41;;;;;;;4.70;2.30;;;22.10;28.10;;;;;;5091732;28;20032;-88
2022/04/20 07:21:07;;;;;;;5.15;2.13;;;22.30;27.90;;;;;;5092895;28;20026;-87
2022/04/20 07:23:32;;;;;;;5.20;2.40;;;22.60;27.70;;;;;;5091728;28;20081;-88
2022/04/20 07:25:58;;;;;;;5.90;2.40;;;22.50;27.10;;;;;;5091321;28;20024;-87
2022/04/20 07:28:24;;;;;;;3.25;1.85;;;22.50;27.10;;;;;;5092885;28;20028;-87
2022/04/20 07:30:50;;;;;;;8.40;2.28;;;22.80;26.50;;;;;;5090569;28;20070;-85
2022/04/20 07:33:16;;;;;;;3.85;1.80;;;22.90;26.40;;;;;;5066977;28;20495;-86
2022/04/20 07:35:45;;;;;;;5.15;2.15;;;22.90;26.10;;;;;;5070240;28;20040;-86
2022/04/20 07:38:12;;;;;;;3.83;2.22;;;23.60;25.40;;;;;;5064932;28;20144;-86
2022/04/20 07:40:38;;;;;;;5.40;2.33;;;23.50;24.90;;;;;;5071508;28;20040;-86
2022/04/20 07:43:04;;;;;;;5.85;2.53;;;23.90;25.10;;;;;;5077031;28;20051;-87
2022/04/20 07:45:29;;;;;;;3.92;2.00;;;23.90;24.30;;;;;;5060738;28;20070;-86
2022/04/20 07:47:57;;;;;;;3.58;2.35;;;24.30;24.20;;;;;;5076955;28;20442;-85
2022/04/20 07:50:24;;;;;;;2.42;1.70;;;24.30;24.60;;;;;;5069834;28;20055;-86
2022/04/20 07:52:52;;;;;;;3.53;1.75;;;24.60;24.80;;;;;;5106498;28;20118;-86
2022/04/20 07:55:26;;;;;;;5.78;1.90;;;24.50;23.70;;;;;;5105941;28;20119;-85
2022/04/20 07:57:54;;;;;;;2.50;1.80;;;23.90;23.70;;;;;;5101122;27;20036;-84
2022/04/20 08:00:22;;;;;;;3.17;1.92;;;23.10;24.60;;;;;;5107796;27;20069;-84
2022/04/20 08:02:49;;;;;;;2.85;1.75;;;21.60;26.00;;;;;;5110612;27;20048;-85
2022/04/20 08:05:16;;;;;;;3.40;1.58;;;21.10;27.30;;;;;;5113764;27;20042;-86
2022/04/20 08:07:43;;;;;;;8.88;2.35;;;20.80;27.40;;;;;;5107834;27;20047;-86
2022/04/20 08:10:10;;;;;;;5.80;2.38;;;20.60;27.80;;;;;;5111262;27;20035;-85
2022/04/20 08:12:41;;;;;;;3.40;2.08;;;20.40;28.00;;;;;;5109028;27;20047;-86
2022/04/20 08:15:08;;;;;;;4.93;2.75;;;19.60;28.30;;;;;;5112788;27;20566;-86
2022/04/20 08:17:34;;;;;;;5.45;2.00;;;18.80;28.80;;;;;;5113549;27;20073;-86
2022/04/20 08:20:00;;;;;;;3.50;2.15;;;18.10;30.30;;;;;;5105931;27;20028;-86
2022/04/20 08:22:26;;;;;;;3.22;2.10;;;17.60;32.60;;;;;;5110741;27;20042;-85
2022/04/20 08:24:53;;;;;;;4.63;2.28;;;17.60;32.80;;;;;;5104731;27;20055;-85
2022/04/20 08:27:22;;;;;;;3.38;1.60;;;18.20;32.90;;;;;;5116670;27;20376;-87
2022/04/20 08:29:48;;;;;;;3.55;1.85;;;18.70;31.40;;;;;;5100840;27;20714;-86
2022/04/20 08:32:16;;;;;;;5.63;2.00;;;19.10;30.20;;;;;;5110848;27;20631;-86
2022/04/20 08:34:43;;;;;;;2.70;1.60;;;19.10;30.30;;;;;;5107884;27;20031;-86
2022/04/20 08:37:09;;;;;;;3.38;1.40;;;19.40;29.30;;;;;;5108843;27;20028;-86
2022/04/20 08:39:35;;;;;;;3.50;1.85;;;19.90;28.90;;;;;;5116602;27;20024;-86
2022/04/20 08:42:01;;;;;;;3.45;1.92;;;20.40;28.50;;;;;;5114440;27;20062;-85
2022/04/20 08:44:28;;;;;;;6.18;1.73;;;21.30;26.60;;;;;;5107570;27;20028;-85
2022/04/20 08:47:01;;;;;;;4.50;1.60;;;21.60;25.40;;;;;;5114436;27;20582;-86
2022/04/20 08:49:26;;;;;;;3.13;1.80;;;22.00;25.30;;;;;;5109109;27;20479;-86
2022/04/20 08:54:39;;;;;;;5.45;1.80;;;23.00;25.60;;;;;;5104252;27;20363;-85
2022/04/20 08:57:18;;;;;;;2.50;1.40;;;23.60;24.10;;;;;;5110205;27;20028;-86
2022/04/20 08:59:49;;;;;;;2.80;1.75;;;24.30;23.50;;;;;;5115882;27;20368;-86
2022/04/20 09:02:19;;;;;;;3.53;1.60;;;24.60;23.00;;;;;;5116084;27;20031;-79
2022/04/20 09:04:44;;;;;;;4.32;1.70;;;24.30;23.30;;;;;;5111819;27;20106;-87
2022/04/20 09:07:14;;;;;;;5.82;2.08;;;24.10;23.10;;;;;;5113847;27;20482;-87
2022/04/20 09:09:39;;;;;;;4.82;1.30;;;24.30;23.40;;;;;;5104205;27;20488;-86
2022/04/20 09:12:19;;;;;;;3.03;1.50;;;24.40;23.20;;;;;;5105425;27;20039;-86
2022/04/20 09:14:50;;;;;;;2.45;1.55;;;23.40;23.70;;;;;;5114619;27;20035;-86
2022/04/20 09:17:20;;;;;;;3.10;1.83;;;23.00;23.90;;;;;;5114400;27;20039;-86
2022/04/20 09:19:51;;;;;;;16.60;8.80;;;22.90;23.90;;;;;;5096818;27;20030;-86
2022/04/20 09:22:20;;;;;;;3.08;1.70;;;22.80;23.90;;;;;;5104221;27;20133;-85
2022/04/20 09:25:17;;;;;;;2.25;1.55;;;23.40;23.60;;;;;;5095635;27;20080;-86
2022/04/20 09:27:43;;;;;;;2.60;1.75;;;24.00;22.60;;;;;;5097573;27;20047;-86
2022/04/20 09:30:14;;;;;;;2.95;1.60;;;24.10;22.30;;;;;;5108795;27;20043;-85
2022/04/20 09:32:44;;;;;;;4.32;2.33;;;24.40;22.90;;;;;;5114762;27;20047;-86
2022/04/20 09:35:12;;;;;;;3.53;1.80;;;24.50;22.60;;;;;;5104551;27;20525;-87
2022/04/20 09:37:38;;;;;;;3.47;1.80;;;25.00;21.80;;;;;;5111898;27;20039;-86
2022/04/20 09:40:11;;;;;;;2.67;1.27;;;24.20;21.50;;;;;;5101536;27;20050;-85
2022/04/20 09:42:39;;;;;;;2.88;1.38;;;24.20;22.00;;;;;;5107098;27;20058;-86
2022/04/20 09:45:07;;;;;;;4.18;1.13;;;24.10;22.30;;;;;;5107303;27;20054;-87
2022/04/20 09:50:23;;;;;;;3.53;1.90;;;23.40;22.70;;;;;;5104597;27;20047;-85
2022/04/20 09:52:54;;;;;;;4.70;1.88;;;23.50;23.00;;;;;;5106523;27;20102;-86
2022/04/20 09:55:26;;;;;;;3.35;1.70;;;23.70;22.70;;;;;;5113749;27;20043;-85
2022/04/20 09:58:07;;;;;;;2.63;1.65;;;23.60;23.10;;;;;;5108506;27;20044;-85
2022/04/20 10:00:40;;;;;;;2.17;1.83;;;23.00;23.30;;;;;;5115179;27;20055;-86
2022/04/20 10:03:07;;;;;;;4.20;2.25;;;22.80;23.50;;;;;;5109635;27;20039;-85
2022/04/20 10:05:32;;;;;;;3.83;1.63;;;23.00;24.00;;;;;;5098145;27;20054;-85
2022/04/20 10:07:59;;;;;;;3.47;1.52;;;23.00;24.20;;;;;;5113692;27;20028;-85
2022/04/20 10:10:28;;;;;;;2.70;1.88;;;23.70;23.60;;;;;;5118318;27;20115;-85
2022/04/20 10:12:56;;;;;;;6.57;1.73;;;23.70;24.00;;;;;;5104618;27;20034;-85
2022/04/20 10:18:18;;;;;;;4.60;1.27;;;22.80;24.60;;;;;;5114031;27;20823;-85
2022/04/20 10:20:47;;;;;;;2.05;1.20;;;22.10;25.30;;;;;;5107577;27;20031;-85
2022/04/20 10:23:22;;;;;;;5.20;1.40;;;21.50;26.40;;;;;;5129868;27;20117;-86
2022/04/20 10:25:52;;;;;;;2.45;1.50;;;20.50;27.30;;;;;;5116007;27;20019;-86
2022/04/20 10:28:41;;;;;;;2.35;1.40;;;19.80;28.40;;;;;;5134394;27;20086;-83
2022/04/20 10:31:24;;;;;;;3.58;1.88;;;19.50;29.00;;;;;;5133282;27;20062;-86
2022/04/20 10:33:50;;;;;;;3.65;1.77;;;19.20;29.40;;;;;;5116086;27;20130;-85
2022/04/20 10:36:18;;;;;;;3.17;1.30;;;18.80;29.00;;;;;;5115703;27;20041;-85
2022/04/20 10:38:46;;;;;;;2.45;1.38;;;18.60;28.90;;;;;;5114945;27;20506;-85
2022/04/20 10:41:19;;;;;;;5.13;1.33;;;18.70;29.60;;;;;;5113136;27;20056;-85
2022/04/20 10:44:02;;;;;;;1.73;1.10;;;18.80;29.40;;;;;;5133084;27;20491;-85
2022/04/20 10:46:28;;;;;;;3.17;1.30;;;18.60;29.00;;;;;;5115355;27;20027;-86
2022/04/20 10:49:02;;;;;;;2.47;1.23;;;18.50;29.30;;;;;;5115837;27;20031;-85
2022/04/20 10:51:33;;;;;;;4.03;1.40;;;18.50;28.00;;;;;;5114842;27;20051;-85
2022/04/20 10:54:17;;;;;;;2.53;1.42;;;18.60;28.10;;;;;;5116013;27;20031;-86
2022/04/20 10:57:09;;;;;;;2.28;1.50;;;18.60;28.40;;;;;;5115327;27;20038;-85
2022/04/20 10:59:34;;;;;;;2.78;1.38;;;18.60;27.80;;;;;;5115780;27;20028;-85
2022/04/20 11:02:03;;;;;;;3.38;1.52;;;18.50;27.70;;;;;;5115471;27;20122;-86
2022/04/20 11:04:33;;;;;;;3.17;1.83;;;18.40;27.40;;;;;;5115607;27;20043;-86
2022/04/20 11:06:59;;;;;;;3.78;1.45;;;18.10;28.40;;;;;;5115682;27;20104;-86
2022/04/20 11:09:46;;;;;;;2.15;1.13;;;18.20;28.40;;;;;;5133662;27;20019;-84
2022/04/20 11:21:04;;;;;;;2.20;1.10;;;18.40;28.20;;;;;;5133816;27;20045;-86
2022/04/20 11:24:08;;;;;;;2.78;1.33;;;18.30;27.40;;;;;;5115445;28;20130;-86
2022/04/20 11:26:40;;;;;;;2.60;1.35;;;18.20;27.40;;;;;;5115155;28;20087;-85
2022/04/20 11:29:22;;;;;;;2.30;1.35;;;17.90;28.20;;;;;;5132940;28;20041;-87
2022/04/20 11:31:51;;;;;;;3.70;1.33;;;17.70;28.80;;;;;;5116309;27;20062;-86
2022/04/20 11:34:20;;;;;;;3.00;1.20;;;17.70;29.30;;;;;;5137877;27;20027;-85
2022/04/20 11:36:51;;;;;;;2.10;1.20;;;17.70;29.30;;;;;;5119459;27;20041;-86
2022/04/20 11:39:19;;;;;;;3.03;1.40;;;17.80;28.90;;;;;;5137642;27;20012;-85
2022/04/20 11:41:49;;;;;;;3.13;1.50;;;17.80;29.40;;;;;;5137545;27;20066;-86
2022/04/20 11:44:20;;;;;;;2.55;1.50;;;17.90;29.60;;;;;;5119003;27;20120;-86
2022/04/20 11:46:45;;;;;;;7.28;1.48;;;18.20;28.90;;;;;;5119090;27;20483;-86
2022/04/20 11:49:12;;;;;;;4.57;1.80;;;18.30;28.00;;;;;;5119389;27;20034;-86
2022/04/20 11:51:38;;;;;;;3.30;1.90;;;18.30;27.50;;;;;;5117492;27;20039;-86
2022/04/20 11:54:04;;;;;;;2.85;2.00;;;18.50;27.60;;;;;;5137837;27;20553;-87
2022/04/20 11:56:39;;;;;;;3.08;2.00;;;18.60;26.40;;;;;;5119127;27;20031;-86
2022/04/20 11:59:07;;;;;;;2.72;1.50;;;18.60;27.20;;;;;;5137146;27;20487;-86
2022/04/20 12:01:33;;;;;;;4.10;1.92;;;18.60;27.60;;;;;;5119315;27;20076;-86
2022/04/20 12:04:04;;;;;;;3.53;1.80;;;18.70;27.10;;;;;;5118828;27;20098;-86
2022/04/20 12:06:30;;;;;;;4.22;2.60;;;18.70;26.90;;;;;;5119062;27;20019;-86
2022/04/20 12:08:56;;;;;;;4.63;1.83;;;18.80;26.20;;;;;;5118791;27;20076;-86
2022/04/20 12:11:21;;;;;;;4.10;1.98;;;18.70;26.00;;;;;;5118711;27;20024;-85
2022/04/20 12:13:54;;;;;;;3.65;2.00;;;18.70;26.30;;;;;;5118917;27;20052;-86
2022/04/20 12:16:20;;;;;;;4.05;1.75;;;18.50;26.30;;;;;;5136883;27;20023;-86
2022/04/20 12:18:46;;;;;;;4.03;2.47;;;18.30;26.30;;;;;;5118699;27;20056;-84
2022/04/20 12:21:49;;;;;;;4.45;2.42;;;17.90;26.30;;;;;;5118465;27;20109;-86
2022/04/20 12:24:22;;;;;;;4.38;2.30;;;17.60;27.00;;;;;;5118128;27;20023;-86
2022/04/20 12:26:50;;;;;;;4.20;2.03;;;17.60;27.60;;;;;;5118514;27;20522;-87
2022/04/20 12:29:19;;;;;;;6.03;2.70;;;17.50;26.70;;;;;;5118391;27;20019;-86
2022/04/20 12:31:47;;;;;;;4.53;2.53;;;17.20;27.00;;;;;;5137187;27;20059;-85
2022/04/20 12:34:15;;;;;;;4.85;2.15;;;16.90;27.20;;;;;;5118480;27;20038;-85
2022/04/20 12:36:54;;;;;;;4.35;2.20;;;16.70;27.60;;;;;;5118654;27;20027;-86
2022/04/20 12:39:40;;;;;;;4.38;2.63;;;16.40;27.40;;;;;;5118344;27;20026;-86
2022/04/20 12:42:13;;;;;;;6.00;3.03;;;16.30;27.80;;;;;;5118150;27;20023;-85
2022/04/20 12:44:54;;;;;;;4.40;2.33;;;16.20;27.40;;;;;;5118400;27;20031;-86
2022/04/20 12:47:22;;;;;;;4.40;2.58;;;16.10;27.80;;;;;;5118022;27;20034;-85
2022/04/20 12:49:53;;;;;;;4.65;2.75;;;16.20;28.00;;;;;;5117895;27;20027;-86
2022/04/20 12:52:30;;;;;;;4.80;2.95;;;16.40;28.30;;;;;;5117875;27;20075;-86
2022/04/20 12:54:57;;;;;;;4.35;2.30;;;16.60;28.00;;;;;;5118244;27;20391;-85
2022/04/20 13:03:11;;;;;;;3.67;2.47;;;17.00;27.00;;;;;;5136476;27;20114;-86
2022/04/20 13:05:42;;;;;;;7.72;2.72;;;17.00;26.70;;;;;;5136273;27;20019;-87
2022/04/20 13:08:10;;;;;;;5.15;2.95;;;17.00;26.80;;;;;;5117611;27;20364;-84
2022/04/20 13:10:37;;;;;;;4.20;2.85;;;16.90;27.10;;;;;;5117795;27;20037;-87
2022/04/20 13:13:04;;;;;;;9.20;2.70;;;16.90;26.50;;;;;;5115349;27;20039;-87
2022/04/20 13:15:30;;;;;;;5.15;2.63;;;16.90;27.20;;;;;;5116725;27;20088;-85
2022/04/20 13:18:00;;;;;;;4.55;2.35;;;16.70;26.90;;;;;;5117725;27;20117;-87
2022/04/20 13:20:28;;;;;;;5.55;2.65;;;16.60;27.80;;;;;;5117719;27;20049;-86
2022/04/20 13:22:54;;;;;;;3.97;2.47;;;16.50;26.60;;;;;;5117116;27;20476;-85
2022/04/20 13:28:05;;;;;;;4.65;2.33;;;16.60;27.90;;;;;;5136046;27;20072;-86
2022/04/20 13:30:36;;;;;;;5.85;2.88;;;16.60;27.80;;;;;;5117678;27;20027;-87
2022/04/20 13:33:21;;;;;;;3.97;2.63;;;16.70;27.50;;;;;;5117072;27;20039;-87
2022/04/20 13:35:49;;;;;;;4.25;2.83;;;16.70;28.00;;;;;;5117830;27;20019;-86
2022/04/20 13:38:15;;;;;;;4.78;2.22;;;16.40;28.70;;;;;;5115978;27;20061;-86
2022/04/20 13:40:42;;;;;;;;;;;16.20;28.40;;;;;;5117587;27;20051;-87
2022/04/20 13:43:08;;;;;;;4.68;2.90;;;15.90;29.10;;;;;;5117541;27;19907;-87
2022/04/20 13:45:35;;;;;;;6.88;3.20;;;15.70;29.90;;;;;;5117039;27;20648;-85